createdAt,value
2024-01-05T00:01:00.494Z,3.07
2024-01-05T00:03:28.531Z,4.43
2024-01-05T00:05:58.015Z,6.30
2024-01-05T00:08:26.021Z,4.80
2024-01-05T00:10:54.120Z,4.87
2024-01-05T00:13:22.110Z,2.80
2024-01-05T00:15:50.032Z,2.80
2024-01-05T00:18:18.212Z,4.00
2024-01-05T00:20:46.343Z,4.50
2024-01-05T00:23:15.838Z,3.70
2024-01-05T00:25:43.785Z,3.77
2024-01-05T00:28:11.796Z,5.13
2024-01-05T00:30:39.924Z,5.47
2024-01-05T00:33:08.065Z,4.67
2024-01-05T00:35:36.095Z,4.07
2024-01-05T00:38:05.803Z,3.67
2024-01-05T00:40:35.112Z,4.87
2024-01-05T00:43:03.238Z,5.10
2024-01-05T00:45:31.821Z,5.67
2024-01-05T00:48:00.060Z,4.37
2024-01-05T00:50:28.170Z,3.90
2024-01-05T00:52:56.073Z,3.53
2024-01-05T00:55:25.435Z,4.23
2024-01-05T00:57:54.761Z,4.83
2024-01-05T01:00:22.817Z,5.53
2024-01-05T01:02:50.928Z,4.70
2024-01-05T01:05:19.184Z,5.10
2024-01-05T01:07:47.179Z,6.87
2024-01-05T01:10:15.072Z,5.27
2024-01-05T01:12:43.910Z,4.50
2024-01-05T01:15:13.355Z,5.40
2024-01-05T01:17:41.442Z,4.67
2024-01-05T01:20:10.632Z,5.30
2024-01-05T01:22:38.563Z,4.03
2024-01-05T01:25:07.394Z,4.43
2024-01-05T01:27:35.565Z,4.83
2024-01-05T01:30:04.249Z,5.93
2024-01-05T01:32:33.708Z,4.37
2024-01-05T01:35:01.718Z,5.70
2024-01-05T01:37:29.726Z,4.83
2024-01-05T01:39:57.696Z,4.83
2024-01-05T01:42:26.293Z,3.60
2024-01-05T01:44:54.365Z,3.17
2024-01-05T01:47:22.366Z,3.57
2024-01-05T01:49:51.917Z,3.47
2024-01-05T01:52:19.874Z,4.00
2024-01-05T01:54:47.878Z,3.87
2024-01-05T01:57:15.913Z,3.10
2024-01-05T01:59:43.893Z,3.47
2024-01-05T02:02:12.748Z,5.80
2024-01-05T02:04:40.936Z,3.50
2024-01-05T02:07:10.409Z,3.37
2024-01-05T02:09:38.462Z,4.23
2024-01-05T02:12:07.184Z,2.90
2024-01-05T02:14:35.158Z,3.67
2024-01-05T02:17:03.051Z,3.50
2024-01-05T02:19:31.136Z,4.43
2024-01-05T02:21:59.085Z,3.90
2024-01-05T02:24:28.377Z,3.00
2024-01-05T02:26:56.513Z,3.33
2024-01-05T02:29:24.450Z,3.40
2024-01-05T02:31:52.394Z,4.17
2024-01-05T02:34:20.559Z,2.73
2024-01-05T02:36:50.291Z,2.87
2024-01-05T02:39:18.311Z,3.43
2024-01-05T02:41:47.737Z,4.60
2024-01-05T02:44:15.757Z,3.20
2024-01-05T02:46:44.014Z,3.17
2024-01-05T02:49:12.352Z,3.90
2024-01-05T02:51:41.143Z,4.43
2024-01-05T02:54:09.231Z,3.87
2024-01-05T02:56:37.271Z,3.60
2024-01-05T02:59:06.751Z,4.00
2024-01-05T03:01:34.754Z,3.33
2024-01-05T03:04:03.253Z,5.77
2024-01-05T03:06:31.411Z,3.20
2024-01-05T03:08:59.524Z,3.17
2024-01-05T03:11:28.026Z,2.83
2024-01-05T03:13:56.014Z,4.70
2024-01-05T03:16:25.369Z,3.90
2024-01-05T03:18:53.571Z,3.57
2024-01-05T03:21:21.676Z,3.37
2024-01-05T03:23:49.664Z,3.20
2024-01-05T03:26:17.713Z,3.83
2024-01-05T03:28:45.635Z,4.30
2024-01-05T03:31:14.337Z,3.80
2024-01-05T03:33:45.122Z,4.30
2024-01-05T03:36:13.397Z,3.10
2024-01-05T03:38:42.826Z,3.73
2024-01-05T03:41:10.878Z,4.10
2024-01-05T03:43:38.843Z,5.40
2024-01-05T03:46:06.993Z,4.63
2024-01-05T03:48:35.089Z,5.67
2024-01-05T03:51:04.876Z,4.60
2024-01-05T03:53:32.868Z,4.43
2024-01-05T03:56:00.822Z,5.47
2024-01-05T03:58:29.505Z,5.07
2024-01-05T04:00:57.644Z,5.03
2024-01-05T04:03:26.029Z,5.93
2024-01-05T04:05:54.261Z,5.37
2024-01-05T04:08:23.654Z,5.60
2024-01-05T04:10:52.079Z,6.43
2024-01-05T04:13:20.534Z,6.20
2024-01-05T04:15:48.663Z,5.53
2024-01-05T04:18:16.846Z,7.23
2024-01-05T04:20:44.991Z,5.57
2024-01-05T04:23:13.160Z,5.80
2024-01-05T04:25:42.561Z,6.13
2024-01-05T04:28:10.540Z,5.97
2024-01-05T04:30:38.680Z,5.53
2024-01-05T04:33:06.983Z,7.03
2024-01-05T04:35:35.397Z,5.90
2024-01-05T04:38:03.350Z,6.70
2024-01-05T04:40:31.300Z,6.73
2024-01-05T04:43:00.581Z,7.37
2024-01-05T04:45:28.861Z,5.90
2024-01-05T04:47:56.978Z,7.60
2024-01-05T04:50:24.945Z,5.73
2024-01-05T04:52:52.965Z,5.63
2024-01-05T04:55:21.794Z,6.03
2024-01-05T04:57:49.888Z,6.20
2024-01-05T05:00:19.951Z,7.67
2024-01-05T05:02:48.051Z,6.70
2024-01-05T05:05:16.233Z,7.07
2024-01-05T05:07:44.242Z,8.10
2024-01-05T05:10:12.347Z,9.03
2024-01-05T05:12:40.360Z,7.67
2024-01-05T05:15:09.954Z,9.30
2024-01-05T05:17:39.303Z,8.90
2024-01-05T05:20:08.148Z,8.50
2024-01-05T05:22:36.186Z,8.30
2024-01-05T05:25:06.615Z,6.97
2024-01-05T05:27:35.741Z,7.37
2024-01-05T05:30:06.919Z,7.07
2024-01-05T05:32:35.024Z,8.67
2024-01-05T05:35:04.657Z,6.97
2024-01-05T05:37:32.707Z,7.90
2024-01-05T05:40:00.814Z,9.87
2024-01-05T05:42:28.893Z,11.10
2024-01-05T05:44:57.156Z,9.57
2024-01-05T05:47:25.223Z,12.77
2024-01-05T05:49:54.387Z,11.20
2024-01-05T05:52:26.000Z,11.70
2024-01-05T05:54:55.204Z,12.20
2024-01-05T05:57:23.410Z,14.77
2024-01-05T05:59:52.914Z,12.03
2024-01-05T06:02:21.340Z,13.07
2024-01-05T06:04:49.533Z,13.27
2024-01-05T06:07:18.081Z,13.43
2024-01-05T06:09:48.361Z,12.57
2024-01-05T06:12:16.444Z,11.47
2024-01-05T06:14:44.536Z,12.93
2024-01-05T06:17:12.546Z,12.60
2024-01-05T06:19:40.655Z,12.80
2024-01-05T06:22:09.229Z,11.73
2024-01-05T06:24:37.483Z,12.80
2024-01-05T06:27:07.155Z,13.60
2024-01-05T06:29:35.196Z,16.10
2024-01-05T06:32:03.477Z,11.77
2024-01-05T06:34:31.543Z,11.70
2024-01-05T06:37:00.378Z,12.97
2024-01-05T06:39:28.333Z,12.50
2024-01-05T06:41:56.345Z,11.50
2024-01-05T06:44:25.701Z,15.00
2024-01-05T06:46:54.202Z,12.23
2024-01-05T06:49:22.333Z,13.87
2024-01-05T06:51:50.412Z,16.80
2024-01-05T06:54:18.462Z,28.60
2024-01-05T06:56:46.485Z,23.30
2024-01-05T06:59:14.515Z,19.90
2024-01-05T07:01:43.973Z,24.03
2024-01-05T07:04:12.020Z,26.63
2024-01-05T07:06:42.812Z,25.17
2024-01-05T07:09:10.898Z,23.27
2024-01-05T07:11:39.100Z,21.30
2024-01-05T07:14:07.440Z,22.70
2024-01-05T07:16:35.466Z,22.30
2024-01-05T07:19:04.887Z,22.50
2024-01-05T07:21:34.662Z,19.43
2024-01-05T07:24:02.776Z,15.60
2024-01-05T07:26:30.725Z,13.03
2024-01-05T07:28:59.448Z,13.40
2024-01-05T07:31:27.475Z,15.63
2024-01-05T07:33:55.700Z,14.03
2024-01-05T07:36:25.350Z,13.93
2024-01-05T07:38:53.312Z,13.33
2024-01-05T07:41:21.340Z,12.13
2024-01-05T07:43:49.895Z,14.23
2024-01-05T07:46:17.846Z,14.53
2024-01-05T07:48:46.033Z,14.75
2024-01-05T07:51:14.879Z,13.13
2024-01-05T07:53:44.238Z,15.03
2024-01-05T07:56:12.165Z,13.80
2024-01-05T07:58:41.949Z,15.77
2024-01-05T08:01:09.898Z,18.97
2024-01-05T08:03:37.964Z,16.33
2024-01-05T08:06:06.820Z,15.57
2024-01-05T08:08:34.911Z,15.60
2024-01-05T08:11:04.268Z,15.77
2024-01-05T08:13:32.228Z,15.57
2024-01-05T08:16:00.234Z,15.13
2024-01-05T08:18:28.365Z,15.40
2024-01-05T08:20:56.482Z,18.07
2024-01-05T08:23:24.526Z,15.27
2024-01-05T08:25:52.482Z,16.30
2024-01-05T08:28:21.798Z,16.57
2024-01-05T08:30:49.770Z,16.13
2024-01-05T08:33:17.902Z,16.67
2024-01-05T08:35:46.260Z,21.90
2024-01-05T08:38:15.454Z,16.13
2024-01-05T08:40:43.539Z,17.10
2024-01-05T08:43:11.728Z,16.67
2024-01-05T08:45:41.175Z,17.17
2024-01-05T08:48:09.993Z,16.70
2024-01-05T08:50:38.422Z,17.07
2024-01-05T08:53:06.444Z,15.83
2024-01-05T08:55:34.741Z,17.73
2024-01-05T08:58:04.001Z,14.77
2024-01-05T09:00:31.989Z,16.00
2024-01-05T09:03:01.838Z,16.73
2024-01-05T09:05:30.180Z,18.77
2024-01-05T09:07:58.267Z,16.43
2024-01-05T09:10:27.326Z,16.43
2024-01-05T09:12:55.331Z,18.80
2024-01-05T09:15:24.250Z,17.87
2024-01-05T09:17:52.854Z,16.90
2024-01-05T09:20:22.329Z,16.67
2024-01-05T09:22:50.340Z,17.10
2024-01-05T09:25:18.284Z,17.53
2024-01-05T09:27:46.376Z,18.00
2024-01-05T09:30:14.854Z,18.03
2024-01-05T09:32:42.882Z,19.63
2024-01-05T09:35:12.369Z,19.10
2024-01-05T09:37:41.812Z,17.90
2024-01-05T09:40:11.996Z,15.27
2024-01-05T09:42:41.631Z,18.63
2024-01-05T09:45:12.836Z,20.80
2024-01-05T09:47:40.986Z,17.73
2024-01-05T09:50:09.906Z,16.93
2024-01-05T09:52:38.017Z,17.67
2024-01-05T09:55:08.025Z,15.50
2024-01-05T09:57:36.100Z,16.33
2024-01-05T10:00:04.979Z,16.40
2024-01-05T10:02:34.383Z,16.20
2024-01-05T10:05:02.538Z,17.43
2024-01-05T10:07:30.530Z,16.60
2024-01-05T10:09:59.948Z,19.07
2024-01-05T10:12:30.012Z,16.30
2024-01-05T10:15:05.162Z,14.50
2024-01-05T10:17:33.360Z,13.57
2024-01-05T10:20:12.648Z,15.60
2024-01-05T10:22:40.679Z,15.67
2024-01-05T10:25:18.844Z,15.73
2024-01-05T10:27:49.535Z,16.60
2024-01-05T10:30:30.406Z,17.93
2024-01-05T10:33:05.357Z,16.20
2024-01-05T10:35:33.431Z,18.13
2024-01-05T10:38:08.195Z,14.37
2024-01-05T10:40:36.277Z,16.30
2024-01-05T10:43:13.049Z,16.97
2024-01-05T10:45:42.685Z,19.07
2024-01-05T10:48:11.953Z,14.57
2024-01-05T10:50:42.454Z,13.60
2024-01-05T10:53:10.789Z,17.20
2024-01-05T10:55:39.845Z,14.73
2024-01-05T10:58:08.939Z,13.30
2024-01-05T11:00:38.522Z,14.53
2024-01-05T11:03:12.020Z,15.27
2024-01-05T11:05:42.500Z,16.63
2024-01-05T11:08:15.989Z,14.07
2024-01-05T11:10:47.981Z,12.73
2024-01-05T11:13:28.377Z,13.57
2024-01-05T11:16:08.916Z,16.20
2024-01-05T11:18:53.479Z,14.63
2024-01-05T11:21:25.962Z,12.47
2024-01-05T11:23:55.186Z,9.77
2024-01-05T11:26:33.226Z,11.77
2024-01-05T11:29:01.234Z,10.07
2024-01-05T11:31:55.172Z,10.87
2024-01-05T11:34:33.660Z,11.37
2024-01-05T11:37:01.832Z,11.60
2024-01-05T11:39:47.189Z,11.13
2024-01-05T11:42:32.946Z,12.63
2024-01-05T11:45:02.318Z,9.63
2024-01-05T11:47:47.174Z,10.87
2024-01-05T11:50:28.424Z,9.90
2024-01-05T11:53:12.528Z,10.17
2024-01-05T11:55:43.837Z,9.53
2024-01-05T11:58:13.110Z,11.37
2024-01-05T12:00:44.117Z,9.47
2024-01-05T12:03:13.575Z,10.27
2024-01-05T12:05:41.636Z,10.83
2024-01-05T12:08:12.002Z,11.10
2024-01-05T12:10:40.937Z,11.30
2024-01-05T12:13:09.169Z,13.13
2024-01-05T12:15:44.219Z,10.57
2024-01-05T12:18:27.962Z,11.37
2024-01-05T12:21:03.300Z,12.70
2024-01-05T12:23:31.894Z,12.00
2024-01-05T12:26:04.487Z,10.13
2024-01-05T12:28:33.158Z,11.00
2024-01-05T12:31:01.244Z,12.23
2024-01-05T12:33:31.590Z,11.03
2024-01-05T12:35:59.822Z,9.90
2024-01-05T12:38:29.775Z,11.23
2024-01-05T12:41:06.900Z,11.00
2024-01-05T12:43:36.115Z,10.57
2024-01-05T12:46:06.186Z,11.80
2024-01-05T12:48:36.118Z,13.57
2024-01-05T12:51:07.970Z,13.17
2024-01-05T12:53:36.347Z,10.33
2024-01-05T12:56:09.083Z,10.70
2024-01-05T12:58:41.120Z,10.57
2024-01-05T13:01:10.447Z,12.33
2024-01-05T13:03:39.793Z,12.07
2024-01-05T13:06:09.341Z,11.30
2024-01-05T13:08:37.336Z,11.70
2024-01-05T13:11:07.438Z,12.87
2024-01-05T13:13:35.477Z,11.23
2024-01-05T13:16:03.594Z,13.23
2024-01-05T13:18:31.827Z,11.00
2024-01-05T13:21:01.355Z,15.40
2024-01-05T13:23:30.500Z,14.30
2024-01-05T13:25:58.509Z,11.97
2024-01-05T13:28:26.871Z,12.97
2024-01-05T13:30:55.091Z,13.40
2024-01-05T13:33:23.228Z,13.27
2024-01-05T13:35:51.380Z,13.73
2024-01-05T13:38:23.293Z,14.10
2024-01-05T13:40:51.377Z,16.67
2024-01-05T13:43:19.367Z,15.80
2024-01-05T13:45:47.339Z,14.57
2024-01-05T13:48:15.409Z,16.30
2024-01-05T13:50:43.391Z,23.00
2024-01-05T13:53:14.185Z,17.13
2024-01-05T13:55:43.819Z,18.23
2024-01-05T13:58:11.805Z,21.37
2024-01-05T14:00:40.608Z,22.10
2024-01-05T14:03:09.318Z,20.83
2024-01-05T14:05:37.398Z,20.63
2024-01-05T14:08:06.035Z,20.80
2024-01-05T14:10:34.031Z,17.47
2024-01-05T14:13:03.556Z,21.33
2024-01-05T14:15:31.546Z,21.00
2024-01-05T14:17:59.699Z,20.63
2024-01-05T14:20:27.840Z,22.30
2024-01-05T14:22:55.877Z,23.90
2024-01-05T14:25:23.961Z,20.83
2024-01-05T14:27:52.061Z,24.03
2024-01-05T14:30:21.635Z,21.17
2024-01-05T14:32:49.767Z,23.37
2024-01-05T14:35:17.772Z,26.27
2024-01-05T14:37:45.802Z,21.23
2024-01-05T14:40:15.011Z,23.17
2024-01-05T14:42:43.139Z,28.60
2024-01-05T14:45:11.535Z,25.37
2024-01-05T14:47:42.688Z,29.20
2024-01-05T14:50:11.579Z,32.30
2024-01-05T14:52:39.532Z,27.97
2024-01-05T14:55:10.910Z,35.93
2024-01-05T14:57:38.944Z,30.67
2024-01-05T15:00:08.088Z,33.93
2024-01-05T15:02:36.219Z,29.03
2024-01-05T15:05:06.320Z,31.60
2024-01-05T15:07:34.235Z,42.17
2024-01-05T15:10:04.074Z,35.90
2024-01-05T15:12:32.245Z,34.23
2024-01-05T15:15:00.697Z,41.70
2024-01-05T15:17:28.837Z,33.80
2024-01-05T15:19:56.966Z,34.70
2024-01-05T15:22:26.344Z,34.50
2024-01-05T15:24:54.394Z,32.43
2024-01-05T15:27:22.556Z,33.20
2024-01-05T15:29:50.562Z,32.10
2024-01-05T15:32:18.540Z,30.33
2024-01-05T15:34:46.782Z,31.93
2024-01-05T15:37:17.305Z,34.23
2024-01-05T15:39:46.677Z,34.20
2024-01-05T15:42:14.842Z,35.37
2024-01-05T15:44:43.058Z,37.57
2024-01-05T15:47:11.204Z,37.77
2024-01-05T15:49:39.349Z,37.83
2024-01-05T15:52:07.563Z,36.90
2024-01-05T15:54:35.611Z,32.40
2024-01-05T15:57:05.585Z,31.53
2024-01-05T15:59:36.837Z,32.53
2024-01-05T16:02:05.278Z,33.13
2024-01-05T16:04:34.642Z,34.63
2024-01-05T16:07:02.687Z,33.73
2024-01-05T16:09:30.862Z,34.17
2024-01-05T16:11:59.330Z,31.77
2024-01-05T16:14:28.702Z,28.87
2024-01-05T16:16:58.335Z,32.20
2024-01-05T16:19:26.507Z,31.43
2024-01-05T16:21:54.967Z,27.17
2024-01-05T16:24:23.058Z,28.90
2024-01-05T16:26:52.035Z,31.67
2024-01-05T16:29:20.001Z,32.97
2024-01-05T16:31:49.416Z,31.47
2024-01-05T16:34:17.592Z,32.53
2024-01-05T16:36:45.661Z,34.63
2024-01-05T16:39:13.857Z,33.93
2024-01-05T16:41:41.831Z,33.63
2024-01-05T16:44:09.894Z,33.20
2024-01-05T16:46:37.900Z,34.97
2024-01-05T16:49:08.010Z,33.50
2024-01-05T16:51:36.444Z,34.20
2024-01-05T16:54:05.856Z,34.50
2024-01-05T16:56:41.030Z,35.37
2024-01-05T16:59:11.764Z,35.20
2024-01-05T17:01:39.809Z,32.10
2024-01-05T17:04:10.668Z,38.27
2024-01-05T17:06:39.150Z,38.53
2024-01-05T17:09:07.418Z,35.73
2024-01-05T17:11:35.488Z,33.30
2024-01-05T17:14:03.814Z,35.43
2024-01-05T17:16:31.855Z,31.47
2024-01-05T17:19:01.668Z,33.23
2024-01-05T17:21:31.172Z,32.87
2024-01-05T17:23:59.209Z,34.43
2024-01-05T17:26:27.364Z,36.13
2024-01-05T17:28:55.358Z,34.20
2024-01-05T17:31:23.439Z,33.93
2024-01-05T17:33:51.752Z,36.80
2024-01-05T17:36:20.484Z,36.03
2024-01-05T17:38:50.801Z,32.93
2024-01-05T17:41:18.794Z,32.93
2024-01-05T17:43:46.765Z,36.50
2024-01-05T17:46:14.951Z,32.80
2024-01-05T17:48:43.218Z,33.90
2024-01-05T17:51:11.313Z,37.87
2024-01-05T17:53:39.652Z,35.33
2024-01-05T17:56:09.378Z,35.63
2024-01-05T17:58:37.407Z,36.63
2024-01-05T18:01:09.411Z,33.30
2024-01-05T18:03:39.868Z,34.43
2024-01-05T18:06:10.645Z,36.77
2024-01-05T18:08:38.795Z,32.10
2024-01-05T18:11:09.493Z,35.67
2024-01-05T18:13:37.637Z,35.80
2024-01-05T18:16:07.696Z,35.53
2024-01-05T18:18:39.718Z,37.50
2024-01-05T18:21:08.099Z,31.70
2024-01-05T18:23:36.070Z,40.73
2024-01-05T18:26:04.618Z,39.47
2024-01-05T18:28:33.955Z,40.67
2024-01-05T18:31:02.218Z,42.60
2024-01-05T18:33:30.422Z,42.33
2024-01-05T18:35:58.482Z,46.07
2024-01-05T18:38:26.456Z,41.47
2024-01-05T18:40:54.461Z,47.70
2024-01-05T18:43:22.987Z,46.20
2024-01-05T18:45:53.111Z,46.90
2024-01-05T18:48:21.322Z,44.73
2024-01-05T18:50:49.782Z,48.40
2024-01-05T18:53:17.950Z,45.37
2024-01-05T18:55:45.978Z,45.27
2024-01-05T18:58:14.006Z,45.23
2024-01-05T19:00:43.550Z,51.77
2024-01-05T19:03:13.313Z,50.67
2024-01-05T19:05:41.461Z,49.27
2024-01-05T19:08:13.646Z,46.10
2024-01-05T19:10:42.936Z,52.80
2024-01-05T19:13:11.098Z,49.73
2024-01-05T19:15:39.238Z,60.67
2024-01-05T19:18:07.669Z,49.27
2024-01-05T19:20:37.136Z,58.87
2024-01-05T19:23:05.552Z,51.30
2024-01-05T19:25:33.549Z,53.70
2024-01-05T19:28:01.579Z,52.60
2024-01-05T19:30:29.608Z,66.33
2024-01-05T19:32:57.652Z,61.43
2024-01-05T19:35:25.628Z,57.90
2024-01-05T19:37:56.811Z,55.93
2024-01-05T19:40:25.110Z,63.90
2024-01-05T19:42:53.247Z,54.60
2024-01-05T19:45:21.260Z,58.43
2024-01-05T19:47:49.643Z,55.43
2024-01-05T19:50:17.866Z,63.97
2024-01-05T19:52:45.934Z,59.93
2024-01-05T19:55:15.320Z,53.87
2024-01-05T19:57:43.356Z,58.13
2024-01-05T20:00:14.339Z,58.97
2024-01-05T20:02:42.531Z,61.97
2024-01-05T20:05:10.998Z,59.70
2024-01-05T20:07:39.259Z,53.93
2024-01-05T20:10:09.133Z,54.50
2024-01-05T20:12:44.410Z,60.87
2024-01-05T20:15:12.584Z,62.03
2024-01-05T20:17:40.659Z,76.03
2024-01-05T20:20:10.297Z,62.40
2024-01-05T20:22:40.465Z,62.63
2024-01-05T20:25:09.739Z,78.47
2024-01-05T20:27:39.755Z,69.80
2024-01-05T20:30:10.129Z,57.80
2024-01-05T20:32:40.903Z,79.77
2024-01-05T20:35:11.076Z,88.03
2024-01-05T20:37:39.466Z,71.63
2024-01-05T20:40:09.792Z,67.47
2024-01-05T20:42:39.745Z,118.10
2024-01-05T20:45:12.784Z,71.97
2024-01-05T20:47:42.194Z,64.40
2024-01-05T20:50:11.598Z,70.57
2024-01-05T20:52:40.166Z,93.27
2024-01-05T20:55:09.414Z,91.33
2024-01-05T20:57:39.165Z,100.00
2024-01-05T21:00:10.120Z,100.77
2024-01-05T21:02:38.211Z,78.57
2024-01-05T21:05:07.563Z,83.13
2024-01-05T21:07:36.946Z,74.70
2024-01-05T21:10:05.323Z,74.27
2024-01-05T21:12:33.652Z,77.07
2024-01-05T21:15:03.550Z,88.87
2024-01-05T21:17:31.553Z,134.03
2024-01-05T21:19:59.905Z,82.23
2024-01-05T21:22:27.950Z,121.10
2024-01-05T21:24:56.191Z,80.13
2024-01-05T21:27:24.789Z,113.53
2024-01-05T21:29:53.843Z,168.73
2024-01-05T21:32:25.418Z,310.23
2024-01-05T21:34:56.261Z,210.57
2024-01-05T21:37:24.800Z,173.80
2024-01-05T21:39:53.470Z,98.93
2024-01-05T21:42:21.867Z,144.13
2024-01-05T21:44:51.413Z,99.23
2024-01-05T21:47:20.893Z,152.50
2024-01-05T21:49:50.340Z,145.60
2024-01-05T21:52:18.409Z,96.57
2024-01-05T21:54:47.020Z,91.87
2024-01-05T21:57:15.140Z,195.60
2024-01-05T21:59:44.584Z,153.17
2024-01-05T22:02:12.631Z,323.87
2024-01-05T22:04:40.707Z,159.37
2024-01-05T22:07:10.757Z,173.00
2024-01-05T22:09:39.237Z,278.47
2024-01-05T22:12:08.792Z,203.03
2024-01-05T22:14:36.878Z,276.13
2024-01-05T22:17:04.178Z,199.77
2024-01-05T22:19:32.299Z,296.47
2024-01-05T22:22:00.891Z,276.30
2024-01-05T22:24:30.676Z,142.73
2024-01-05T22:26:58.842Z,281.07
2024-01-05T22:29:26.847Z,321.23
2024-01-05T22:31:55.048Z,259.43
2024-01-05T22:34:23.179Z,264.87
2024-01-05T22:36:51.437Z,338.40
2024-01-05T22:39:19.544Z,266.80
2024-01-05T22:41:49.179Z,389.73
2024-01-05T22:44:17.148Z,462.10
2024-01-05T22:46:44.224Z,322.93
2024-01-05T22:49:12.337Z,376.23
2024-01-05T22:51:40.480Z,289.47
2024-01-05T22:54:08.579Z,305.47
2024-01-05T22:56:36.554Z,441.60
2024-01-05T22:59:05.936Z,600.30
2024-01-05T23:01:34.068Z,439.30
2024-01-05T23:04:01.769Z,414.80
2024-01-05T23:06:29.970Z,366.63
2024-01-05T23:08:58.323Z,375.00
2024-01-05T23:11:26.275Z,234.37
2024-01-05T23:13:55.255Z,456.70
2024-01-05T23:16:24.652Z,270.60
2024-01-05T23:18:53.362Z,485.17
2024-01-05T23:21:21.540Z,374.70
2024-01-05T23:23:49.541Z,383.40
2024-01-05T23:26:18.205Z,486.17
2024-01-05T23:28:46.223Z,283.50
2024-01-05T23:31:14.494Z,232.00
2024-01-05T23:33:57.568Z,326.23
2024-01-05T23:36:32.648Z,366.63
2024-01-05T23:39:00.661Z,385.17
2024-01-05T23:41:28.644Z,319.33
2024-01-05T23:43:56.757Z,403.70
2024-01-05T23:46:24.666Z,234.17
2024-01-05T23:48:54.102Z,177.57
2024-01-05T23:51:22.179Z,265.30
2024-01-05T23:53:50.149Z,194.77
2024-01-05T23:56:18.260Z,209.43
2024-01-05T23:58:46.869Z,250.93
